createdAt,value
2023-02-13T00:01:23.784Z,7.90
2023-02-13T00:03:26.395Z,7.90
2023-02-13T00:05:28.908Z,7.90
2023-02-13T00:07:31.510Z,7.90
2023-02-13T00:09:34.007Z,8.00
2023-02-13T00:11:36.618Z,8.10
2023-02-13T00:13:40.127Z,8.00
2023-02-13T00:15:42.778Z,8.00
2023-02-13T00:17:45.304Z,7.90
2023-02-13T00:19:47.843Z,7.90
2023-02-13T00:21:50.353Z,7.90
2023-02-13T00:23:53.166Z,8.00
2023-02-13T00:25:55.753Z,7.90
2023-02-13T00:27:58.282Z,7.80
2023-02-13T00:30:00.862Z,7.80
2023-02-13T00:32:03.609Z,7.80
2023-02-13T00:34:06.229Z,7.80
2023-02-13T00:36:12.317Z,7.90
2023-02-13T00:38:14.905Z,7.90
2023-02-13T00:40:17.525Z,7.80
2023-02-13T00:42:22.241Z,7.80
2023-02-13T00:44:25.236Z,7.80
2023-02-13T00:46:27.983Z,7.70
2023-02-13T00:48:31.633Z,7.70
2023-02-13T00:50:34.236Z,7.70
2023-02-13T00:52:38.087Z,7.70
2023-02-13T00:54:40.607Z,7.70
2023-02-13T00:56:43.188Z,7.70
2023-02-13T00:58:45.918Z,7.70
2023-02-13T01:00:51.522Z,7.70
2023-02-13T01:02:54.143Z,7.60
2023-02-13T01:04:56.760Z,7.70
2023-02-13T01:07:00.284Z,7.70
2023-02-13T01:09:03.844Z,7.80
2023-02-13T01:11:06.625Z,7.60
2023-02-13T01:13:10.057Z,7.70
2023-02-13T01:15:12.670Z,7.70
2023-02-13T01:17:16.066Z,7.70
2023-02-13T01:19:18.604Z,7.70
2023-02-13T01:21:22.818Z,7.60
2023-02-13T01:23:25.497Z,7.60
2023-02-13T01:25:28.014Z,7.60
2023-02-13T01:27:32.443Z,7.60
2023-02-13T01:29:34.996Z,7.60
2023-02-13T01:31:38.068Z,7.60
2023-02-13T01:33:40.801Z,7.60
2023-02-13T01:35:43.363Z,7.60
2023-02-13T01:37:45.960Z,7.60
2023-02-13T01:39:49.144Z,7.60
2023-02-13T01:41:51.648Z,7.60
2023-02-13T01:43:54.975Z,7.60
2023-02-13T01:45:57.680Z,7.60
2023-02-13T01:48:02.087Z,7.70
2023-02-13T01:50:07.022Z,7.60
2023-02-13T01:52:10.647Z,7.60
2023-02-13T01:54:14.989Z,7.60
2023-02-13T01:56:19.927Z,7.60
2023-02-13T01:58:24.672Z,7.60
2023-02-13T02:00:27.785Z,7.60
2023-02-13T02:02:31.725Z,7.60
2023-02-13T02:04:37.476Z,7.70
2023-02-13T02:06:43.401Z,7.60
2023-02-13T02:08:47.678Z,7.60
2023-02-13T02:10:52.198Z,7.60
2023-02-13T02:12:56.869Z,7.60
2023-02-13T02:15:00.056Z,7.60
2023-02-13T02:17:04.443Z,7.60
2023-02-13T02:19:10.263Z,7.60
2023-02-13T02:21:35.155Z,7.70
2023-02-13T02:23:55.550Z,7.70
2023-02-13T02:26:23.456Z,7.70
2023-02-13T02:28:36.074Z,7.80
2023-02-13T02:31:07.163Z,7.70
2023-02-13T02:33:15.454Z,7.80
2023-02-13T02:35:21.697Z,7.80
2023-02-13T02:37:28.638Z,7.80
2023-02-13T02:39:33.173Z,8.30
2023-02-13T02:41:42.786Z,7.80
2023-02-13T02:43:50.582Z,7.80
2023-02-13T02:45:55.081Z,7.80
2023-02-13T02:48:18.078Z,7.80
2023-02-13T02:50:34.195Z,7.80
2023-02-13T02:52:41.977Z,7.90
2023-02-13T02:55:04.592Z,7.80
2023-02-13T02:57:09.885Z,7.80
2023-02-13T02:59:32.308Z,7.80
2023-02-13T03:01:54.736Z,7.90
2023-02-13T03:04:16.928Z,7.90
2023-02-13T03:06:21.625Z,7.90
2023-02-13T03:08:43.780Z,8.00
2023-02-13T03:11:04.676Z,7.90
2023-02-13T03:13:20.808Z,8.00
2023-02-13T03:15:23.836Z,7.90
2023-02-13T03:17:45.358Z,7.90
2023-02-13T03:20:10.998Z,7.90
2023-02-13T03:22:18.410Z,7.90
2023-02-13T03:24:22.703Z,7.90
2023-02-13T03:26:36.951Z,7.90
2023-02-13T03:29:00.029Z,7.90
2023-02-13T03:31:04.489Z,7.90
2023-02-13T03:33:11.187Z,7.90
2023-02-13T03:35:36.804Z,7.80
2023-02-13T03:37:56.411Z,7.80
2023-02-13T03:40:01.059Z,7.80
2023-02-13T03:42:05.734Z,7.80
2023-02-13T03:44:11.815Z,7.70
2023-02-13T03:46:15.479Z,7.20
2023-02-13T03:48:37.765Z,7.80
2023-02-13T03:50:42.097Z,7.80
2023-02-13T03:52:46.504Z,7.80
2023-02-13T03:55:09.328Z,7.70
2023-02-13T03:57:31.578Z,7.70
2023-02-13T03:59:35.857Z,7.70
2023-02-13T04:01:39.171Z,7.70
2023-02-13T04:03:43.607Z,7.70
2023-02-13T04:05:47.828Z,7.70
2023-02-13T04:07:50.453Z,7.70
2023-02-13T04:09:52.980Z,7.70
2023-02-13T04:11:58.240Z,7.70
2023-02-13T04:14:01.513Z,7.60
2023-02-13T04:16:05.884Z,7.60
2023-02-13T04:18:10.876Z,7.60
2023-02-13T04:20:14.153Z,7.60
2023-02-13T04:22:16.686Z,7.70
2023-02-13T04:24:19.198Z,7.60
2023-02-13T04:26:23.198Z,7.60
2023-02-13T04:28:25.870Z,7.60
2023-02-13T04:30:28.512Z,7.60
2023-02-13T04:32:31.003Z,7.60
2023-02-13T04:34:33.650Z,7.60
2023-02-13T04:36:36.181Z,7.60
2023-02-13T04:38:38.968Z,7.60
2023-02-13T04:40:41.486Z,7.60
2023-02-13T04:42:44.067Z,7.60
2023-02-13T04:44:46.639Z,7.60
2023-02-13T04:46:49.176Z,7.60
2023-02-13T04:48:51.652Z,7.60
2023-02-13T04:50:54.152Z,7.60
2023-02-13T04:52:58.578Z,7.50
2023-02-13T04:55:01.094Z,7.60
2023-02-13T04:57:03.648Z,7.60
2023-02-13T04:59:06.129Z,7.60
2023-02-13T05:01:15.251Z,7.60
2023-02-13T05:03:17.925Z,7.50
2023-02-13T05:05:21.058Z,7.50
2023-02-13T05:07:23.510Z,7.50
2023-02-13T05:09:26.116Z,7.50
2023-02-13T05:11:28.626Z,7.50
2023-02-13T05:13:31.124Z,7.60
2023-02-13T05:15:33.631Z,7.60
2023-02-13T05:17:36.106Z,7.50
2023-02-13T05:19:39.044Z,7.50
2023-02-13T05:21:59.669Z,7.50
2023-02-13T05:24:02.136Z,7.50
2023-02-13T05:26:04.838Z,7.50
2023-02-13T05:28:10.118Z,7.50
2023-02-13T05:30:14.215Z,7.50
2023-02-13T05:32:16.963Z,7.50
2023-02-13T05:34:19.615Z,7.60
2023-02-13T05:36:22.122Z,7.60
2023-02-13T05:38:24.609Z,7.60
2023-02-13T05:40:27.403Z,7.60
2023-02-13T05:42:29.913Z,7.50
2023-02-13T05:44:32.411Z,7.50
2023-02-13T05:46:35.336Z,7.60
2023-02-13T05:48:37.916Z,7.50
2023-02-13T05:50:40.545Z,7.50
2023-02-13T05:52:43.051Z,7.50
2023-02-13T05:54:45.616Z,7.60
2023-02-13T05:56:48.166Z,7.50
2023-02-13T05:58:52.567Z,7.50
2023-02-13T06:00:57.144Z,7.50
2023-02-13T06:02:59.889Z,7.50
2023-02-13T06:05:02.678Z,7.50
2023-02-13T06:07:05.160Z,7.50
2023-02-13T06:09:07.871Z,7.50
2023-02-13T06:11:10.335Z,7.50
2023-02-13T06:13:12.931Z,7.60
2023-02-13T06:15:15.478Z,7.60
2023-02-13T06:17:17.951Z,7.60
2023-02-13T06:19:20.478Z,7.50
2023-02-13T06:21:23.130Z,7.60
2023-02-13T06:23:25.653Z,7.60
2023-02-13T06:25:28.163Z,7.60
2023-02-13T06:27:30.640Z,7.60
2023-02-13T06:29:33.537Z,7.70
2023-02-13T06:31:36.148Z,7.70
2023-02-13T06:33:38.687Z,7.70
2023-02-13T06:35:41.186Z,7.70
2023-02-13T06:37:43.874Z,7.70
2023-02-13T06:39:46.447Z,7.70
2023-02-13T06:41:48.918Z,7.70
2023-02-13T06:43:51.425Z,7.60
2023-02-13T06:45:53.921Z,7.60
2023-02-13T06:47:56.400Z,7.60
2023-02-13T06:50:00.425Z,7.60
2023-02-13T06:52:02.920Z,7.60
2023-02-13T06:54:05.498Z,7.60
2023-02-13T06:56:08.193Z,7.60
2023-02-13T06:58:10.660Z,7.60
2023-02-13T07:00:15.087Z,7.60
2023-02-13T07:02:17.603Z,7.60
2023-02-13T07:04:20.141Z,7.50
2023-02-13T07:06:22.647Z,7.50
2023-02-13T07:08:25.164Z,7.50
2023-02-13T07:10:27.643Z,7.40
2023-02-13T07:12:30.167Z,7.40
2023-02-13T07:14:32.672Z,7.30
2023-02-13T07:16:36.284Z,7.30
2023-02-13T07:18:38.826Z,7.20
2023-02-13T07:20:41.426Z,7.20
2023-02-13T07:22:43.916Z,7.30
2023-02-13T07:24:46.418Z,7.30
2023-02-13T07:26:48.935Z,7.20
2023-02-13T07:28:56.976Z,7.20
2023-02-13T07:30:56.173Z,7.20
2023-02-13T07:33:00.623Z,7.20
2023-02-13T07:35:03.122Z,7.10
2023-02-13T07:37:05.627Z,7.20
2023-02-13T07:39:08.373Z,7.20
2023-02-13T07:41:10.868Z,7.20
2023-02-13T07:43:13.502Z,7.20
2023-02-13T07:45:16.134Z,7.20
2023-02-13T07:47:20.183Z,7.10
2023-02-13T07:49:22.936Z,7.10
2023-02-13T07:51:25.565Z,7.20
2023-02-13T07:53:28.469Z,7.10
2023-02-13T07:55:30.963Z,7.10
2023-02-13T07:57:55.982Z,7.20
2023-02-13T07:59:59.118Z,7.30
2023-02-13T08:02:01.668Z,7.30
2023-02-13T08:04:04.602Z,7.40
2023-02-13T08:06:07.735Z,7.40
2023-02-13T08:08:10.287Z,7.70
2023-02-13T08:10:31.815Z,7.90
2023-02-13T08:12:35.463Z,8.20
2023-02-13T08:14:37.958Z,8.50
2023-02-13T08:16:40.534Z,8.50
2023-02-13T08:18:43.051Z,8.50
2023-02-13T08:20:45.558Z,8.80
2023-02-13T08:22:48.149Z,8.70
2023-02-13T08:24:50.668Z,8.70
2023-02-13T08:26:53.161Z,8.90
2023-02-13T08:28:56.033Z,9.10
2023-02-13T08:30:58.586Z,9.20
2023-02-13T08:33:01.129Z,9.30
2023-02-13T08:35:03.727Z,9.50
2023-02-13T08:37:06.723Z,9.40
2023-02-13T08:39:09.680Z,9.50
2023-02-13T08:41:12.276Z,9.20
2023-02-13T08:43:14.962Z,9.70
2023-02-13T08:45:17.569Z,9.80
2023-02-13T08:47:20.136Z,9.50
2023-02-13T08:49:23.323Z,9.80
2023-02-13T08:51:27.156Z,9.90
2023-02-13T08:53:29.945Z,9.70
2023-02-13T08:55:32.462Z,9.50
2023-02-13T08:57:35.035Z,9.50
2023-02-13T08:59:37.753Z,9.70
2023-02-13T09:01:40.320Z,9.30
2023-02-13T09:03:43.096Z,9.30
2023-02-13T09:05:46.921Z,9.30
2023-02-13T09:07:49.768Z,9.20
2023-02-13T09:09:52.430Z,9.20
2023-02-13T09:11:57.550Z,9.50
2023-02-13T09:14:00.861Z,9.10
2023-02-13T09:16:07.283Z,9.00
2023-02-13T09:18:10.005Z,9.10
2023-02-13T09:20:14.025Z,9.00
2023-02-13T09:22:17.088Z,8.90
2023-02-13T09:24:19.719Z,8.90
2023-02-13T09:26:22.230Z,8.90
2023-02-13T09:28:24.781Z,9.10
2023-02-13T09:30:27.334Z,9.10
2023-02-13T09:32:29.802Z,9.00
2023-02-13T09:34:32.475Z,9.20
2023-02-13T09:36:35.719Z,9.10
2023-02-13T09:38:38.232Z,8.90
2023-02-13T09:40:43.170Z,9.00
2023-02-13T09:42:46.155Z,9.00
2023-02-13T09:44:49.335Z,9.10
2023-02-13T09:46:52.040Z,9.10
2023-02-13T09:48:56.561Z,9.10
2023-02-13T09:50:59.611Z,9.30
2023-02-13T09:53:02.254Z,9.30
2023-02-13T09:55:08.742Z,9.60
2023-02-13T09:57:15.127Z,9.80
2023-02-13T09:59:22.315Z,9.40
2023-02-13T10:01:26.979Z,9.40
2023-02-13T10:03:31.275Z,9.70
2023-02-13T10:05:55.431Z,9.70
2023-02-13T10:08:02.952Z,9.70
2023-02-13T10:10:11.384Z,9.80
2023-02-13T10:12:18.268Z,9.80
2023-02-13T10:14:22.629Z,9.90
2023-02-13T10:16:27.242Z,9.80
2023-02-13T10:18:33.629Z,9.80
2023-02-13T10:20:38.375Z,9.90
2023-02-13T10:22:42.767Z,9.80
2023-02-13T10:24:47.652Z,10.00
2023-02-13T10:26:50.168Z,10.20
2023-02-13T10:29:13.958Z,10.30
2023-02-13T10:31:18.101Z,10.40
2023-02-13T10:33:22.430Z,10.30
2023-02-13T10:35:26.861Z,10.70
2023-02-13T10:37:29.652Z,10.90
2023-02-13T10:39:33.386Z,10.40
2023-02-13T10:41:41.528Z,10.80
2023-02-13T10:43:48.769Z,10.60
2023-02-13T10:46:00.132Z,10.50
2023-02-13T10:48:07.668Z,11.00
2023-02-13T10:50:14.832Z,10.70
2023-02-13T10:52:20.578Z,10.50
2023-02-13T10:54:27.150Z,10.30
2023-02-13T10:56:32.132Z,10.70
2023-02-13T10:58:41.640Z,11.30
2023-02-13T11:00:46.764Z,11.30
2023-02-13T11:02:49.467Z,11.40
2023-02-13T11:04:53.151Z,11.50
2023-02-13T11:06:57.536Z,11.20
2023-02-13T11:09:00.026Z,11.30
2023-02-13T11:11:02.538Z,11.10
2023-02-13T11:13:15.592Z,11.40
2023-02-13T11:15:22.647Z,11.20
2023-02-13T11:17:26.817Z,10.70
2023-02-13T11:19:31.742Z,10.80
2023-02-13T11:21:35.596Z,10.90
2023-02-13T11:23:40.535Z,11.30
2023-02-13T11:25:44.809Z,11.60
2023-02-13T11:27:47.877Z,11.40
2023-02-13T11:29:54.369Z,11.30
2023-02-13T11:32:09.822Z,11.30
2023-02-13T11:34:20.640Z,11.50
2023-02-13T11:36:25.335Z,11.30
2023-02-13T11:38:27.828Z,11.70
2023-02-13T11:40:31.763Z,12.00
2023-02-13T11:42:35.164Z,11.80
2023-02-13T11:44:37.721Z,12.00
2023-02-13T11:46:47.491Z,12.00
2023-02-13T11:48:57.681Z,11.90
2023-02-13T11:51:00.234Z,11.70
2023-02-13T11:53:04.808Z,11.60
2023-02-13T11:55:11.672Z,11.40
2023-02-13T11:57:19.944Z,11.60
2023-02-13T11:59:23.811Z,11.90
2023-02-13T12:01:28.707Z,12.10
2023-02-13T12:03:32.202Z,12.10
2023-02-13T12:05:34.877Z,12.00
2023-02-13T12:07:37.771Z,12.10
2023-02-13T12:09:41.082Z,12.00
2023-02-13T12:11:46.129Z,11.90
2023-02-13T12:13:49.054Z,12.00
2023-02-13T12:15:53.560Z,11.70
2023-02-13T12:18:06.586Z,11.80
2023-02-13T12:20:12.621Z,11.70
2023-02-13T12:22:21.544Z,11.40
2023-02-13T12:24:29.192Z,11.30
2023-02-13T12:26:34.184Z,11.40
2023-02-13T12:28:41.565Z,11.40
2023-02-13T12:31:01.296Z,11.20
2023-02-13T12:33:07.958Z,11.60
2023-02-13T12:35:24.304Z,11.80
2023-02-13T12:37:32.734Z,11.90
2023-02-13T12:39:36.723Z,11.90
2023-02-13T12:41:41.405Z,11.60
2023-02-13T12:44:01.803Z,11.70
2023-02-13T12:46:06.602Z,11.80
2023-02-13T12:48:13.128Z,11.40
2023-02-13T12:50:20.935Z,11.40
2023-02-13T12:52:28.035Z,11.30
2023-02-13T12:54:39.033Z,11.50
2023-02-13T12:56:52.692Z,11.60
2023-02-13T12:59:01.348Z,11.60
2023-02-13T13:01:06.917Z,11.30
2023-02-13T13:03:13.913Z,11.30
2023-02-13T13:05:19.809Z,11.40
2023-02-13T13:07:26.975Z,11.50
2023-02-13T13:09:43.456Z,11.50
2023-02-13T13:11:57.008Z,11.60
2023-02-13T13:14:02.030Z,11.60
2023-02-13T13:16:06.865Z,11.60
2023-02-13T13:18:14.585Z,11.70
2023-02-13T13:20:32.827Z,11.60
2023-02-13T13:22:37.562Z,11.50
2023-02-13T13:24:45.542Z,11.50
2023-02-13T13:26:49.979Z,11.70
2023-02-13T13:28:54.111Z,11.90
2023-02-13T13:30:58.667Z,11.80
2023-02-13T13:33:03.301Z,11.90
2023-02-13T13:35:06.414Z,11.60
2023-02-13T13:37:12.417Z,11.60
2023-02-13T13:39:22.329Z,11.80
2023-02-13T13:41:29.256Z,11.70
2023-02-13T13:43:33.721Z,11.70
2023-02-13T13:45:39.665Z,11.90
2023-02-13T13:47:48.490Z,11.90
2023-02-13T13:49:53.578Z,11.70
2023-02-13T13:52:09.819Z,11.80
2023-02-13T13:54:27.193Z,11.80
2023-02-13T13:56:33.763Z,11.70
2023-02-13T13:58:37.562Z,11.40
2023-02-13T14:00:40.132Z,11.50
2023-02-13T14:02:44.323Z,11.60
2023-02-13T14:04:58.953Z,11.60
2023-02-13T14:07:18.354Z,11.70
2023-02-13T14:09:49.242Z,11.70
2023-02-13T14:11:51.984Z,11.70
2023-02-13T14:13:54.576Z,11.50
2023-02-13T14:15:57.304Z,11.40
2023-02-13T14:18:00.758Z,11.40
2023-02-13T14:20:06.632Z,11.40
2023-02-13T14:22:28.407Z,11.30
2023-02-13T14:24:31.468Z,11.40
2023-02-13T14:26:35.257Z,11.40
2023-02-13T14:28:38.563Z,11.50
2023-02-13T14:30:41.354Z,11.50
2023-02-13T14:32:45.527Z,11.50
2023-02-13T14:34:53.361Z,11.40
2023-02-13T14:37:02.824Z,11.50
2023-02-13T14:39:06.888Z,11.50
2023-02-13T14:41:13.508Z,11.60
2023-02-13T14:43:35.942Z,11.60
2023-02-13T14:45:42.827Z,11.50
2023-02-13T14:47:49.179Z,11.50
2023-02-13T14:49:52.400Z,11.50
2023-02-13T14:51:56.489Z,11.30
2023-02-13T14:54:01.505Z,11.30
2023-02-13T14:56:05.878Z,11.20
2023-02-13T14:58:10.852Z,11.20
2023-02-13T15:00:16.808Z,11.30
2023-02-13T15:02:21.633Z,11.40
2023-02-13T15:04:27.355Z,11.40
2023-02-13T15:06:32.737Z,11.40
2023-02-13T15:08:37.119Z,11.40
2023-02-13T15:10:41.833Z,11.40
2023-02-13T15:12:45.441Z,11.40
2023-02-13T15:14:48.431Z,11.30
2023-02-13T15:16:52.757Z,11.30
2023-02-13T15:18:55.516Z,11.30
2023-02-13T15:21:00.011Z,11.30
2023-02-13T15:23:02.928Z,11.30
2023-02-13T15:25:05.978Z,11.30
2023-02-13T15:27:15.783Z,11.30
2023-02-13T15:29:35.148Z,11.30
2023-02-13T15:31:24.723Z,11.20
2023-02-13T15:33:29.020Z,11.20
2023-02-13T15:35:33.135Z,11.20
2023-02-13T15:37:35.634Z,11.20
2023-02-13T15:39:38.145Z,11.10
2023-02-13T15:41:42.395Z,11.00
2023-02-13T15:43:46.291Z,11.10
2023-02-13T15:45:49.109Z,11.00
2023-02-13T15:47:52.250Z,11.00
2023-02-13T15:49:55.160Z,10.90
2023-02-13T15:52:04.853Z,10.90
2023-02-13T15:54:09.175Z,10.80
2023-02-13T15:56:13.932Z,10.80
2023-02-13T15:58:16.574Z,10.70
2023-02-13T16:00:21.753Z,10.70
2023-02-13T16:02:26.212Z,10.60
2023-02-13T16:04:29.727Z,10.60
2023-02-13T16:06:33.612Z,10.50
2023-02-13T16:08:38.019Z,10.40
2023-02-13T16:10:41.070Z,10.40
2023-02-13T16:12:46.495Z,10.30
2023-02-13T16:14:51.308Z,10.30
2023-02-13T16:16:55.404Z,10.20
2023-02-13T16:18:58.132Z,10.20
2023-02-13T16:21:02.443Z,10.20
2023-02-13T16:23:06.443Z,10.10
2023-02-13T16:25:18.621Z,10.10
2023-02-13T16:27:21.519Z,10.10
2023-02-13T16:29:25.603Z,10.00
2023-02-13T16:31:28.294Z,10.00
2023-02-13T16:33:31.675Z,9.90
2023-02-13T16:35:37.352Z,9.80
2023-02-13T16:37:47.779Z,9.70
2023-02-13T16:39:50.269Z,9.70
2023-02-13T16:41:53.197Z,9.60
2023-02-13T16:43:56.117Z,9.50
2023-02-13T16:46:10.616Z,9.50
2023-02-13T16:48:13.894Z,9.40
2023-02-13T16:50:16.558Z,9.30
2023-02-13T16:52:20.260Z,9.30
2023-02-13T16:54:25.216Z,9.20
2023-02-13T16:56:27.920Z,9.20
2023-02-13T16:58:30.496Z,9.20
2023-02-13T17:00:33.468Z,9.10
2023-02-13T17:02:37.600Z,9.10
2023-02-13T17:04:42.316Z,9.00
2023-02-13T17:06:44.879Z,9.00
2023-02-13T17:08:47.405Z,8.90
2023-02-13T17:11:01.257Z,8.90
2023-02-13T17:13:05.651Z,8.90
2023-02-13T17:15:12.109Z,8.80
2023-02-13T17:17:15.437Z,8.80
2023-02-13T17:19:18.092Z,8.80
2023-02-13T17:21:20.736Z,8.70
2023-02-13T17:23:24.128Z,8.80
2023-02-13T17:25:28.692Z,8.80
2023-02-13T17:27:31.214Z,8.80
2023-02-13T17:29:33.771Z,8.70
2023-02-13T17:31:36.807Z,8.60
2023-02-13T17:33:40.698Z,8.60
2023-02-13T17:35:43.317Z,8.50
2023-02-13T17:37:45.814Z,8.60
2023-02-13T17:39:48.707Z,8.60
2023-02-13T17:41:51.344Z,8.60
2023-02-13T17:43:53.829Z,8.60
2023-02-13T17:45:56.465Z,8.50
2023-02-13T17:47:59.093Z,8.50
2023-02-13T17:50:09.978Z,8.60
2023-02-13T17:52:06.170Z,8.50
2023-02-13T17:54:11.199Z,8.50
2023-02-13T17:56:13.747Z,8.40
2023-02-13T17:58:16.245Z,8.20
2023-02-13T18:00:20.045Z,8.10
2023-02-13T18:02:23.543Z,8.00
2023-02-13T18:04:26.072Z,8.00
2023-02-13T18:06:28.671Z,8.00
2023-02-13T18:08:31.250Z,7.90
2023-02-13T18:10:35.044Z,7.90
2023-02-13T18:12:38.597Z,7.90
2023-02-13T18:14:41.660Z,7.90
2023-02-13T18:16:44.265Z,7.90
2023-02-13T18:18:46.808Z,7.80
2023-02-13T18:20:53.304Z,7.70
2023-02-13T18:22:55.934Z,7.60
2023-02-13T18:24:58.420Z,7.60
2023-02-13T18:27:00.918Z,7.70
2023-02-13T18:29:03.568Z,7.70
2023-02-13T18:31:08.046Z,7.60
2023-02-13T18:33:11.490Z,7.60
2023-02-13T18:35:14.065Z,7.60
2023-02-13T18:37:17.506Z,7.60
2023-02-13T18:39:20.102Z,7.50
2023-02-13T18:41:22.613Z,7.40
2023-02-13T18:43:25.277Z,7.40
2023-02-13T18:45:27.933Z,7.40
2023-02-13T18:47:30.714Z,7.30
2023-02-13T18:49:33.236Z,7.30
2023-02-13T18:51:35.758Z,7.20
2023-02-13T18:53:38.320Z,7.20
2023-02-13T18:55:41.300Z,7.10
2023-02-13T18:57:44.930Z,7.00
2023-02-13T18:59:47.513Z,7.00
2023-02-13T19:01:50.194Z,7.00
2023-02-13T19:03:53.908Z,6.90
2023-02-13T19:05:58.346Z,6.90
2023-02-13T19:08:01.029Z,6.90
2023-02-13T19:10:03.977Z,6.70
2023-02-13T19:12:07.525Z,6.70
2023-02-13T19:14:17.306Z,6.70
2023-02-13T19:16:20.693Z,6.70
2023-02-13T19:18:23.917Z,6.70
2023-02-13T19:20:26.418Z,6.70
2023-02-13T19:22:28.959Z,6.60
2023-02-13T19:24:31.559Z,6.50
2023-02-13T19:26:34.855Z,6.50
2023-02-13T19:28:37.509Z,6.50
2023-02-13T19:30:40.090Z,6.50
2023-02-13T19:32:42.657Z,6.40
2023-02-13T19:34:46.289Z,6.30
2023-02-13T19:36:48.947Z,6.30
2023-02-13T19:38:54.480Z,6.30
2023-02-13T19:41:00.254Z,6.20
2023-02-13T19:43:02.924Z,6.10
2023-02-13T19:45:06.126Z,6.00
2023-02-13T19:47:08.739Z,6.00
2023-02-13T19:49:11.248Z,5.80
2023-02-13T19:51:14.430Z,5.70
2023-02-13T19:53:17.004Z,5.60
2023-02-13T19:55:21.643Z,5.50
2023-02-13T19:57:24.215Z,5.50
2023-02-13T19:59:26.825Z,5.50
2023-02-13T20:01:29.830Z,5.40
2023-02-13T20:03:32.402Z,5.30
2023-02-13T20:05:39.633Z,5.20
2023-02-13T20:07:42.141Z,5.20
2023-02-13T20:09:44.721Z,5.10
2023-02-13T20:11:47.214Z,5.10
2023-02-13T20:13:53.349Z,5.00
2023-02-13T20:15:55.890Z,5.00
2023-02-13T20:17:58.348Z,5.00
2023-02-13T20:20:00.898Z,4.90
2023-02-13T20:22:03.426Z,4.90
2023-02-13T20:24:07.712Z,4.90
2023-02-13T20:26:13.372Z,4.80
2023-02-13T20:28:15.994Z,4.70
2023-02-13T20:30:19.005Z,4.80
2023-02-13T20:32:21.631Z,4.70
2023-02-13T20:34:24.311Z,4.70
2023-02-13T20:36:28.312Z,4.60
2023-02-13T20:38:31.535Z,4.70
2023-02-13T20:40:34.149Z,4.60
2023-02-13T20:42:36.651Z,4.60
2023-02-13T20:44:39.135Z,4.70
2023-02-13T20:46:41.680Z,4.70
2023-02-13T20:48:45.071Z,4.60
2023-02-13T20:50:50.878Z,4.60
2023-02-13T20:52:53.409Z,4.50
2023-02-13T20:54:58.092Z,4.40
2023-02-13T20:57:00.614Z,4.50
2023-02-13T20:59:04.879Z,4.40
2023-02-13T21:01:11.487Z,4.40
2023-02-13T21:03:14.148Z,4.30
2023-02-13T21:05:16.822Z,4.40
2023-02-13T21:07:20.940Z,4.30
2023-02-13T21:09:23.776Z,4.30
2023-02-13T21:11:27.650Z,3.40
2023-02-13T21:13:31.957Z,4.20
2023-02-13T21:15:34.446Z,4.20
2023-02-13T21:17:36.936Z,4.20
2023-02-13T21:19:39.432Z,4.20
2023-02-13T21:21:43.563Z,4.10
2023-02-13T21:23:46.065Z,3.90
2023-02-13T21:25:49.276Z,3.90
2023-02-13T21:27:52.006Z,3.90
2023-02-13T21:29:54.729Z,3.90
2023-02-13T21:31:57.332Z,3.80
2023-02-13T21:34:02.169Z,3.70
2023-02-13T21:36:06.195Z,3.70
2023-02-13T21:38:08.675Z,3.70
2023-02-13T21:40:12.276Z,3.70
2023-02-13T21:42:15.771Z,3.80
2023-02-13T21:44:18.302Z,3.80
2023-02-13T21:46:22.357Z,3.80
2023-02-13T21:48:25.171Z,3.70
2023-02-13T21:50:27.794Z,3.70
2023-02-13T21:52:30.270Z,3.70
2023-02-13T21:54:33.138Z,3.60
2023-02-13T21:56:36.735Z,3.50
2023-02-13T21:58:40.283Z,3.50
2023-02-13T22:00:42.838Z,3.40
2023-02-13T22:02:45.658Z,3.40
2023-02-13T22:04:48.316Z,3.30
2023-02-13T22:06:51.422Z,3.20
2023-02-13T22:08:57.095Z,3.20
2023-02-13T22:11:00.379Z,3.10
2023-02-13T22:13:03.184Z,3.10
2023-02-13T22:15:06.130Z,3.10
2023-02-13T22:17:08.754Z,3.10
2023-02-13T22:19:13.006Z,3.10
2023-02-13T22:21:17.222Z,3.00
2023-02-13T22:23:19.744Z,3.00
2023-02-13T22:25:22.221Z,3.10
2023-02-13T22:27:24.752Z,3.00
2023-02-13T22:29:27.417Z,2.90
2023-02-13T22:31:30.058Z,2.90
2023-02-13T22:33:33.389Z,2.90
2023-02-13T22:35:37.756Z,2.90
2023-02-13T22:37:40.271Z,2.80
2023-02-13T22:39:42.757Z,2.70
2023-02-13T22:41:45.374Z,2.70
2023-02-13T22:43:47.877Z,2.70
2023-02-13T22:45:50.469Z,2.70
2023-02-13T22:47:53.162Z,2.60
2023-02-13T22:49:55.676Z,2.50
2023-02-13T22:51:58.592Z,2.40
2023-02-13T22:54:01.133Z,2.40
2023-02-13T22:56:04.886Z,2.40
2023-02-13T22:58:07.412Z,2.40
2023-02-13T23:00:12.494Z,2.40
2023-02-13T23:02:15.058Z,2.40
2023-02-13T23:04:17.586Z,2.40
2023-02-13T23:06:21.297Z,2.40
2023-02-13T23:08:23.784Z,2.30
2023-02-13T23:10:26.396Z,2.40
2023-02-13T23:12:40.197Z,2.40
2023-02-13T23:14:42.820Z,2.30
2023-02-13T23:17:03.688Z,2.30
2023-02-13T23:19:06.199Z,2.40
2023-02-13T23:21:08.753Z,2.30
2023-02-13T23:23:11.359Z,2.30
2023-02-13T23:25:14.251Z,2.20
2023-02-13T23:27:16.755Z,2.20
2023-02-13T23:29:19.287Z,2.20
2023-02-13T23:31:21.832Z,2.20
2023-02-13T23:33:24.473Z,2.10
2023-02-13T23:35:27.887Z,2.00
2023-02-13T23:37:30.540Z,2.00
2023-02-13T23:39:33.088Z,2.00
2023-02-13T23:41:35.584Z,2.00
2023-02-13T23:43:38.196Z,2.00
2023-02-13T23:45:40.656Z,2.00
2023-02-13T23:47:43.159Z,1.70
2023-02-13T23:49:45.656Z,1.80
2023-02-13T23:51:48.233Z,1.70
2023-02-13T23:53:52.582Z,1.70
2023-02-13T23:55:55.452Z,1.80
2023-02-13T23:57:58.010Z,1.70
